Startpagina
METAR-TAF:

METAR-TAF

Vliegvelden :

Bagé, Rio Grande do Sul, Brazilië

breedte: 31-21S, lengte: 054-07W, hoogte: 180 m

Actueel weer

Dit bericht is 1 uur en het 6 minuten geleden gemaakt, om 23:00 UTC
Wind 7 kt uit het oosten
Temperatuur 19°C
Vochtigheid 68%
Druk 1015 hPa
Zicht 10 km of meer
geen wolken onder 1500 m en geen cumulonimbus

METAR: SBBG 232300Z AUTO 09007KT CAVOK 19/13 Q1015

Tijdstip: 21:06 (00:06 UTC)

Verwachting

Dit bericht is 3 uur en het 6 minuten geleden gemaakt, om 21:00 UTC
Verwachting geldig van 24 om 00 UTC tot 24 om 24 UTC
Wind 10 kt uit het oostnoordoosten
Zicht 10 km of meer
geen wolken onder 1500 m en geen cumulonimbus
Kans 40%
van 24 om 08 UTC tot 24 om 10 UTC
Zicht: 2000 m
nevel
Wijzigt naar
van 24 om 12 UTC tot 24 om 14 UTC
Wind 7 kt uit het noorden

TAF: SBBG 232100Z 2400/2424 06010KT CAVOK TN15/2408Z TX30/2418Z PROB40 2408/2410 2000 BR NSC BECMG 2412/2414 36007KT RMK PDJ

Waarnemingen en weersverwachtingen van meer dan 4000 vliegvelden (METAR en TAF).

De beschikbare stations zijn de gele en rode punten op de kaart.

Ga met uw muis naar het station om de naam te zien.

Klik dan om waarnemingen en weersverwachtingen te zien.

kaart wijzigen: klik op de groene knoppen met een zwart kruis om in te zoomen, op de groene knop met een streepje om uit te zoomen of op de groene pijlen voor aangrenzende kaarten.


METAR-TAF: